Time;durP1;ratioP1;P1;durP2;ratioP2;P2;SDS_P1;SDS_P2;PMS_P1;PMS_P2;Temp;Humidity;BMP_temperature;BMP_pressure;BME280_temperature;BME280_humidity;BME280_pressure;Samples;Min_cycle;Max_cycle;Signal;HPM_P1;HPM_P2
2022/03/05 00:00:38;;;;;;;16.33;8.13;;;;;;;-1.39;79.38;99323.81;5112966;28;20054;-79
2022/03/05 00:03:06;;;;;;;15.47;7.03;;;;;;;-1.47;79.92;99313.69;5137776;27;20045;-79
2022/03/05 00:05:33;;;;;;;16.07;7.33;;;;;;;-1.54;80.75;99318.56;5147248;27;20501;-80
2022/03/05 00:08:01;;;;;;;15.63;8.00;;;;;;;-1.68;82.25;99319.50;5151584;27;20043;-79
2022/03/05 00:10:28;;;;;;;18.20;8.07;;;;;;;-1.81;82.13;99297.28;5148175;27;20139;-79
2022/03/05 00:12:54;;;;;;;14.17;6.83;;;;;;;-1.79;82.72;99306.06;5127795;27;20044;-79
2022/03/05 00:15:21;;;;;;;18.37;7.17;;;;;;;-1.74;82.77;99319.09;5128963;27;20043;-79
2022/03/05 00:17:48;;;;;;;17.47;7.37;;;;;;;-1.82;82.82;99301.78;5132609;27;20498;-79
2022/03/05 00:20:16;;;;;;;12.47;6.23;;;;;;;-1.77;82.15;99328.13;5127745;27;20035;-79
2022/03/05 00:22:43;;;;;;;14.90;7.10;;;;;;;-1.87;82.44;99309.22;5111873;27;20043;-79
2022/03/05 00:25:10;;;;;;;13.47;6.70;;;;;;;-2.03;83.10;99306.72;5136063;27;20051;-79
2022/03/05 00:27:37;;;;;;;14.60;5.80;;;;;;;-2.08;83.44;99295.50;5131992;27;20047;-80
2022/03/05 00:30:04;;;;;;;12.03;7.10;;;;;;;-1.86;83.89;99326.09;5128220;27;20047;-79
2022/03/05 00:32:30;;;;;;;12.73;6.87;;;;;;;-1.98;83.52;99306.44;5127832;27;20047;-79
2022/03/05 00:34:57;;;;;;;12.73;6.90;;;;;;;-2.09;83.52;99296.50;5124766;27;20043;-79
2022/03/05 00:37:25;;;;;;;13.27;6.93;;;;;;;-1.96;83.93;99318.69;5120705;27;20047;-79
2022/03/05 00:39:52;;;;;;;13.33;6.40;;;;;;;-2.23;84.90;99299.19;5111344;27;20499;-79
2022/03/05 00:42:18;;;;;;;13.50;6.20;;;;;;;-2.18;85.71;99321.91;5125673;27;20052;-79
2022/03/05 00:44:45;;;;;;;12.73;6.57;;;;;;;-2.25;85.94;99319.75;5122919;27;20054;-78
2022/03/05 00:47:11;;;;;;;18.43;6.07;;;;;;;-2.33;86.80;99307.78;5131876;27;20057;-79
2022/03/05 00:49:38;;;;;;;14.33;6.83;;;;;;;-2.36;87.35;99323.97;5145481;27;20133;-79
2022/03/05 00:52:05;;;;;;;14.47;6.40;;;;;;;-2.35;88.07;99320.34;5129515;27;20043;-79
2022/03/05 00:54:33;;;;;;;14.90;7.07;;;;;;;-2.51;89.31;99291.19;5123775;27;20039;-79
2022/03/05 00:56:59;;;;;;;13.23;7.07;;;;;;;-2.60;89.45;99307.75;5138539;27;20117;-79
2022/03/05 00:59:26;;;;;;;14.80;6.83;;;;;;;-2.50;90.15;99313.34;5152698;27;20050;-79
2022/03/05 01:01:53;;;;;;;18.37;7.07;;;;;;;-2.54;89.95;99296.72;5131272;27;20506;-79
2022/03/05 01:04:19;;;;;;;14.93;7.40;;;;;;;-2.41;89.52;99302.13;5130913;28;20043;-79
2022/03/05 01:06:46;;;;;;;19.50;8.17;;;;;;;-2.51;90.37;99307.16;5133942;27;20054;-79
2022/03/05 01:09:12;;;;;;;13.73;7.00;;;;;;;-2.59;91.21;99317.47;5134621;27;20051;-80
2022/03/05 01:11:40;;;;;;;13.70;6.50;;;;;;;-2.73;92.07;99313.00;5127582;28;20051;-79
2022/03/05 01:14:07;;;;;;;15.80;7.43;;;;;;;-2.70;92.02;99310.13;5150700;27;20043;-79
2022/03/05 01:16:35;;;;;;;13.60;7.10;;;;;;;-2.69;92.09;99303.03;5131205;27;20043;-79
2022/03/05 01:19:01;;;;;;;13.93;6.87;;;;;;;-2.78;92.78;99292.97;5126034;27;20039;-79
2022/03/05 01:21:28;;;;;;;13.97;6.90;;;;;;;-2.71;92.78;99316.44;5129686;28;20278;-79
2022/03/05 01:24:12;;;;;;;14.00;7.40;;;;;;;-2.81;93.01;99295.81;5130666;27;20039;-80
2022/03/05 01:26:40;;;;;;;17.17;7.37;;;;;;;-2.80;92.25;99301.03;5125499;28;20043;-79
2022/03/05 01:29:07;;;;;;;15.23;6.83;;;;;;;-2.78;92.38;99308.94;5132550;27;20047;-79
2022/03/05 01:31:33;;;;;;;13.83;6.17;;;;;;;-3.00;91.73;99298.78;5131372;28;20043;-79
2022/03/05 01:34:00;;;;;;;14.90;6.97;;;;;;;-2.90;92.21;99302.56;5127362;27;20494;-79
2022/03/05 01:36:26;;;;;;;16.57;6.70;;;;;;;-2.94;92.25;99312.53;5130747;28;20051;-80
2022/03/05 01:38:55;;;;;;;14.43;6.67;;;;;;;-3.11;92.52;99294.13;5130291;27;20047;-80
2022/03/05 01:41:21;;;;;;;20.43;6.67;;;;;;;-3.03;93.33;99310.44;5131426;27;20047;-80
2022/03/05 01:43:53;;;;;;;15.67;7.07;;;;;;;-3.12;93.70;99295.06;5130548;27;20051;-80
2022/03/05 01:46:31;;;;;;;13.77;6.70;;;;;;;-3.14;94.50;99310.28;5128782;27;20090;-80
2022/03/05 01:48:58;;;;;;;13.83;6.37;;;;;;;-3.14;94.57;99304.94;5136805;27;20043;-80
2022/03/05 01:51:25;;;;;;;16.07;7.00;;;;;;;-3.27;94.72;99283.56;5116420;27;20055;-80
2022/03/05 01:53:51;;;;;;;14.80;6.60;;;;;;;-3.22;93.45;99295.63;5133616;27;20051;-81
2022/03/05 01:56:19;;;;;;;13.87;6.57;;;;;;;-3.14;93.28;99307.63;5134930;27;20051;-80
2022/03/05 01:58:46;;;;;;;13.63;6.87;;;;;;;-3.24;94.19;99305.53;5136291;27;20482;-80
2022/03/05 02:01:15;;;;;;;16.50;7.30;;;;;;;-3.30;93.22;99294.38;5134728;27;20134;-80
2022/03/05 02:03:42;;;;;;;14.03;6.97;;;;;;;-3.26;93.22;99303.91;5128167;27;20054;-80
2022/03/05 02:06:10;;;;;;;14.10;6.53;;;;;;;-3.21;92.83;99320.41;5127209;27;20540;-80
2022/03/05 02:08:37;;;;;;;14.40;6.97;;;;;;;-3.38;94.19;99297.53;5134345;27;20055;-80
2022/03/05 02:11:03;;;;;;;14.90;5.97;;;;;;;-3.42;94.62;99286.22;5133935;27;20055;-80
2022/03/05 02:13:30;;;;;;;14.80;7.27;;;;;;;-3.58;94.50;99280.13;5133680;27;20066;-80
2022/03/05 02:15:56;;;;;;;14.73;7.10;;;;;;;-3.49;95.57;99299.97;5134717;27;20047;-80
2022/03/05 02:18:24;;;;;;;13.40;6.53;;;;;;;-3.60;95.84;99282.00;5134533;27;20047;-81
2022/03/05 02:20:52;;;;;;;16.27;7.80;;;;;;;-3.60;96.22;99288.19;5133781;27;20086;-80
2022/03/05 02:23:19;;;;;;;14.77;6.53;;;;;;;-3.56;95.22;99304.81;5126233;27;20047;-80
2022/03/05 02:25:54;;;;;;;16.70;7.13;;;;;;;-3.63;95.85;99309.63;5130866;27;20505;-80
2022/03/05 02:28:20;;;;;;;15.53;7.33;;;;;;;-3.63;96.28;99299.00;5121916;27;20418;-80
2022/03/05 02:30:47;;;;;;;12.00;6.97;;;;;;;-3.67;96.16;99296.59;5135053;27;20070;-80
2022/03/05 02:33:14;;;;;;;14.03;5.97;;;;;;;-3.61;95.51;99314.88;5142498;27;20050;-80
2022/03/05 02:35:43;;;;;;;18.10;7.30;;;;;;;-3.63;96.39;99316.75;5132376;27;20051;-80
2022/03/05 02:38:11;;;;;;;17.87;6.83;;;;;;;-3.58;96.41;99314.69;5145761;27;20058;-80
2022/03/05 02:40:38;;;;;;;15.37;7.27;;;;;;;-3.79;96.83;99304.38;5135228;27;20058;-80
2022/03/05 02:43:05;;;;;;;19.60;7.87;;;;;;;-3.72;96.72;99304.00;5133362;27;20512;-80
2022/03/05 02:45:31;;;;;;;18.50;7.47;;;;;;;-3.75;96.52;99307.69;5143913;27;20054;-80
2022/03/05 02:47:58;;;;;;;16.80;7.80;;;;;;;-3.72;96.37;99304.00;5117328;27;20043;-80
2022/03/05 02:50:24;;;;;;;17.30;7.00;;;;;;;-3.87;96.72;99290.66;5139999;27;20039;-80
2022/03/05 02:52:51;;;;;;;18.23;5.90;;;;;;;-3.88;96.77;99288.09;5146286;27;20050;-80
2022/03/05 02:55:18;;;;;;;19.53;7.33;;;;;;;-3.83;96.40;99292.22;5153978;27;20417;-80
2022/03/05 02:57:45;;;;;;;17.50;6.33;;;;;;;-3.97;97.17;99277.09;5141748;27;20039;-80
2022/03/05 03:00:13;;;;;;;14.40;6.13;;;;;;;-3.96;97.69;99277.94;5125606;27;20055;-80
2022/03/05 03:02:39;;;;;;;18.13;6.13;;;;;;;-3.84;98.35;99309.13;5113294;28;20410;-79
2022/03/05 03:05:06;;;;;;;11.97;6.33;;;;;;;-4.02;99.17;99307.50;5119462;27;20050;-80
2022/03/05 03:07:33;;;;;;;16.80;6.83;;;;;;;-3.95;98.98;99299.09;5133850;27;20058;-80
2022/03/05 03:09:59;;;;;;;17.67;7.10;;;;;;;-4.13;99.46;99292.19;5135541;27;20494;-80
2022/03/05 03:12:27;;;;;;;13.93;6.90;;;;;;;-4.01;99.24;99303.91;5117310;27;20052;-80
2022/03/05 03:14:54;;;;;;;17.23;7.03;;;;;;;-4.12;98.83;99297.41;5135389;27;20045;-80
2022/03/05 03:17:20;;;;;;;16.33;7.33;;;;;;;-4.15;99.37;99296.75;5151819;27;20061;-80
2022/03/05 03:19:47;;;;;;;16.33;6.43;;;;;;;-4.18;99.24;99292.47;5130532;27;20044;-80
2022/03/05 03:22:14;;;;;;;19.53;6.27;;;;;;;-4.20;98.84;99298.81;5125973;27;20503;-80
2022/03/05 03:24:41;;;;;;;12.50;6.20;;;;;;;-4.17;99.12;99298.63;5153465;27;20042;-80
2022/03/05 03:27:08;;;;;;;17.00;6.80;;;;;;;-4.13;98.41;99295.69;5151121;27;20046;-80
2022/03/05 03:29:37;;;;;;;12.47;6.47;;;;;;;-4.09;98.34;99296.41;5122244;27;20051;-80
2022/03/05 03:32:05;;;;;;;17.47;6.73;;;;;;;-4.09;98.21;99313.19;5133812;27;20130;-80
2022/03/05 03:34:31;;;;;;;13.67;5.87;;;;;;;-4.13;98.33;99310.78;5116472;27;20055;-80
2022/03/05 03:36:58;;;;;;;19.27;6.90;;;;;;;-4.18;99.02;99297.78;5132958;27;20125;-80
2022/03/05 03:39:24;;;;;;;18.03;6.30;;;;;;;-4.16;98.75;99285.25;5133336;27;20074;-80
2022/03/05 03:41:51;;;;;;;17.40;7.40;;;;;;;-3.99;98.37;99300.25;5133081;27;20506;-79
2022/03/05 03:44:17;;;;;;;13.17;5.63;;;;;;;-4.01;98.58;99299.44;5130755;27;20051;-80
2022/03/05 03:46:45;;;;;;;11.73;6.03;;;;;;;-3.95;99.19;99306.22;5130037;27;20047;-79
2022/03/05 03:49:12;;;;;;;12.17;5.77;;;;;;;-3.94;99.11;99298.16;5126626;27;20129;-80
2022/03/05 03:51:39;;;;;;;16.97;7.07;;;;;;;-4.10;99.28;99279.59;5132171;27;20452;-79
2022/03/05 03:54:05;;;;;;;13.57;6.17;;;;;;;-3.94;98.30;99306.13;5132732;27;20050;-80
2022/03/05 03:56:32;;;;;;;12.20;5.90;;;;;;;-4.17;98.72;99288.00;5132113;27;20043;-80
2022/03/05 03:58:59;;;;;;;11.57;5.73;;;;;;;-4.11;99.50;99311.53;5130389;27;20055;-79
2022/03/05 04:01:25;;;;;;;13.53;6.13;;;;;;;-4.18;100.00;99308.41;5127427;27;20073;-80
2022/03/05 04:03:53;;;;;;;14.43;6.53;;;;;;;-4.14;100.00;99311.72;5135817;27;20042;-79
2022/03/05 04:06:20;;;;;;;14.33;6.83;;;;;;;-4.35;100.00;99284.59;5115388;27;20055;-80
2022/03/05 04:08:45;;;;;;;20.00;6.10;;;;;;;-4.20;100.00;99307.66;5122248;27;20057;-80
2022/03/05 04:11:13;;;;;;;15.03;6.93;;;;;;;-4.33;100.00;99296.00;5132211;27;20051;-80
2022/03/05 04:13:40;;;;;;;15.17;6.40;;;;;;;-4.23;100.00;99313.13;5130702;27;20047;-80
2022/03/05 04:16:07;;;;;;;17.57;7.43;;;;;;;-4.28;100.00;99316.03;5130909;27;20055;-80
2022/03/05 04:18:34;;;;;;;19.23;6.97;;;;;;;-4.27;100.00;99323.06;5133122;27;20504;-80
2022/03/05 04:21:02;;;;;;;16.43;7.33;;;;;;;-4.24;100.00;99319.38;5127285;27;20046;-80
2022/03/05 04:23:29;;;;;;;18.97;7.10;;;;;;;-4.40;100.00;99307.91;5150189;27;20057;-80
2022/03/05 04:25:56;;;;;;;15.20;6.77;;;;;;;-4.30;100.00;99325.88;5132144;27;20058;-80
2022/03/05 04:28:23;;;;;;;14.27;6.40;;;;;;;-4.37;100.00;99313.03;5144340;27;20516;-79
2022/03/05 04:30:49;;;;;;;17.20;7.13;;;;;;;-4.51;100.00;99301.41;5141472;27;20425;-80
2022/03/05 04:33:16;;;;;;;14.90;6.57;;;;;;;-4.48;100.00;99303.88;5123754;27;20413;-79
2022/03/05 04:35:42;;;;;;;14.33;5.90;;;;;;;-4.53;100.00;99287.38;5121126;27;20537;-79
2022/03/05 04:38:10;;;;;;;15.90;6.87;;;;;;;-4.48;100.00;99305.69;5130962;27;20047;-79
2022/03/05 04:40:37;;;;;;;16.93;6.63;;;;;;;-4.45;100.00;99332.91;5132099;27;20043;-80
2022/03/05 04:43:03;;;;;;;11.77;5.77;;;;;;;-4.40;100.00;99316.72;5131727;27;20051;-80
2022/03/05 04:45:30;;;;;;;14.70;5.97;;;;;;;-4.36;100.00;99328.88;5126782;27;20057;-79
2022/03/05 04:47:57;;;;;;;12.87;6.37;;;;;;;-4.48;100.00;99322.47;5131764;27;20046;-79
2022/03/05 04:50:23;;;;;;;16.40;6.90;;;;;;;-4.42;100.00;99325.72;5130055;27;20421;-80
2022/03/05 04:52:50;;;;;;;20.40;5.97;;;;;;;-4.46;100.00;99344.47;5126531;27;20043;-80
2022/03/05 04:55:18;;;;;;;15.57;6.10;;;;;;;-4.57;100.00;99322.13;5111094;27;20077;-79
2022/03/05 04:57:44;;;;;;;14.60;6.33;;;;;;;-4.52;100.00;99338.66;5133160;27;20083;-79
2022/03/05 05:00:12;;;;;;;13.43;6.17;;;;;;;-4.50;100.00;99320.81;5137574;27;20058;-79
2022/03/05 05:02:39;;;;;;;14.17;6.70;;;;;;;-4.54;100.00;99351.16;5150473;27;20042;-80
2022/03/05 05:05:06;;;;;;;15.10;6.33;;;;;;;-4.60;100.00;99343.53;5137211;27;20730;-80
2022/03/05 05:07:33;;;;;;;13.37;6.20;;;;;;;-4.71;100.00;99336.13;5131520;27;20047;-79
2022/03/05 05:09:59;;;;;;;15.93;6.10;;;;;;;-4.66;100.00;99328.81;5132949;27;20051;-80
2022/03/05 05:12:27;;;;;;;20.30;6.77;;;;;;;-4.86;100.00;99332.56;5135093;27;20470;-79
2022/03/05 05:14:54;;;;;;;18.17;7.50;;;;;;;-4.81;100.00;99341.94;5136181;27;20410;-80
2022/03/05 05:17:20;;;;;;;16.90;6.67;;;;;;;-4.88;100.00;99339.72;5152508;27;20583;-79
2022/03/05 05:19:47;;;;;;;17.77;6.67;;;;;;;-4.82;100.00;99356.19;5139363;27;20044;-80
2022/03/05 05:22:13;;;;;;;15.43;6.67;;;;;;;-4.96;100.00;99342.78;5128019;27;20047;-79
2022/03/05 05:24:40;;;;;;;12.93;6.53;;;;;;;-4.95;100.00;99349.81;5130547;27;20043;-79
2022/03/05 05:27:07;;;;;;;19.03;6.70;;;;;;;-4.95;100.00;99355.13;5147925;27;20045;-80
2022/03/05 05:29:35;;;;;;;16.57;7.17;;;;;;;-4.90;100.00;99360.19;5156710;27;20065;-80
2022/03/05 05:32:02;;;;;;;15.43;7.47;;;;;;;-4.87;100.00;99371.47;5142434;27;20043;-79
2022/03/05 05:34:28;;;;;;;14.60;5.87;;;;;;;-4.95;100.00;99370.16;5134452;27;20047;-79
2022/03/05 05:36:55;;;;;;;16.33;6.40;;;;;;;-5.08;100.00;99365.50;5129110;27;20063;-80
2022/03/05 05:39:21;;;;;;;14.97;5.90;;;;;;;-5.12;100.00;99361.28;5135734;27;20496;-80
2022/03/05 05:41:48;;;;;;;14.90;6.50;;;;;;;-5.18;100.00;99351.91;5144021;27;20502;-80
2022/03/05 05:44:14;;;;;;;15.37;6.20;;;;;;;-5.09;100.00;99379.69;5128420;27;20059;-79
2022/03/05 05:46:42;;;;;;;19.77;6.20;;;;;;;-5.10;100.00;99371.81;5118899;27;20052;-79
2022/03/05 05:49:09;;;;;;;13.33;5.83;;;;;;;-5.22;100.00;99368.88;5131955;27;20414;-80
2022/03/05 05:51:35;;;;;;;11.17;5.40;;;;;;;-5.21;100.00;99373.25;5134979;27;20058;-79
2022/03/05 05:54:03;;;;;;;17.37;7.40;;;;;;;-5.18;100.00;99375.75;5127408;27;20047;-79
2022/03/05 05:56:29;;;;;;;14.73;6.40;;;;;;;-5.26;100.00;99361.19;5136141;27;20047;-79
2022/03/05 05:58:56;;;;;;;16.00;6.87;;;;;;;-5.21;100.00;99364.44;5136947;27;20049;-79
2022/03/05 06:01:23;;;;;;;13.73;6.43;;;;;;;-5.17;100.00;99372.16;5147299;27;20051;-79
2022/03/05 06:03:52;;;;;;;18.00;6.80;;;;;;;-5.14;100.00;99387.03;5125874;27;20044;-79
2022/03/05 06:06:19;;;;;;;13.70;6.70;;;;;;;-5.19;100.00;99373.19;5114151;28;20444;-80
2022/03/05 06:08:45;;;;;;;17.53;6.93;;;;;;;-5.24;100.00;99365.47;5123578;27;20058;-79
2022/03/05 06:11:12;;;;;;;14.87;6.53;;;;;;;-5.19;100.00;99387.28;5134598;27;20502;-80
2022/03/05 06:13:38;;;;;;;21.23;6.70;;;;;;;-5.26;100.00;99372.63;5142893;27;20039;-79
2022/03/05 06:16:06;;;;;;;21.03;7.27;;;;;;;-5.13;100.00;99395.84;5143707;27;20513;-79
2022/03/05 06:18:32;;;;;;;15.87;6.20;;;;;;;-5.08;100.00;99409.72;5133861;27;20522;-78
2022/03/05 06:21:00;;;;;;;21.53;6.83;;;;;;;-5.14;100.00;99389.69;5127872;27;20434;-79
2022/03/05 06:23:27;;;;;;;14.13;6.50;;;;;;;-5.11;100.00;99404.59;5129827;27;20046;-79
2022/03/05 06:25:54;;;;;;;19.83;7.43;;;;;;;-5.21;100.00;99375.91;5131932;27;20043;-80
2022/03/05 06:28:21;;;;;;;18.90;6.93;;;;;;;-5.13;100.00;99394.06;5134373;27;20379;-80
2022/03/05 06:30:47;;;;;;;16.90;6.63;;;;;;;-4.95;100.00;99417.88;5120138;27;20051;-80
2022/03/05 06:33:14;;;;;;;16.67;8.13;;;;;;;-5.02;100.00;99396.16;5126109;27;20049;-80
2022/03/05 06:35:40;;;;;;;15.13;6.50;;;;;;;-5.08;100.00;99402.63;5155191;27;20046;-80
2022/03/05 06:38:08;;;;;;;24.13;7.00;;;;;;;-4.94;100.00;99409.00;5151040;27;20049;-80
2022/03/05 06:40:35;;;;;;;20.03;7.57;;;;;;;-4.93;100.00;99406.25;5145946;27;20051;-80
2022/03/05 06:43:01;;;;;;;19.73;7.27;;;;;;;-4.71;100.00;99429.88;5130895;27;20089;-80
2022/03/05 06:45:28;;;;;;;14.83;6.60;;;;;;;-4.69;100.00;99427.97;5133339;27;20047;-80
2022/03/05 06:47:54;;;;;;;19.03;6.97;;;;;;;-4.73;100.00;99423.75;5134079;27;20043;-80
2022/03/05 06:50:21;;;;;;;25.00;8.17;;;;;;;-4.71;100.00;99415.72;5154916;27;20478;-80
2022/03/05 06:52:48;;;;;;;17.40;7.47;;;;;;;-4.55;100.00;99418.41;5153786;27;20045;-80
2022/03/05 06:55:16;;;;;;;19.10;7.63;;;;;;;-4.33;100.00;99434.88;5144893;27;20055;-80
2022/03/05 06:57:43;;;;;;;18.27;7.70;;;;;;;-4.33;100.00;99407.50;5120449;27;20379;-80
2022/03/05 07:00:12;;;;;;;22.90;8.27;;;;;;;-4.08;100.00;99436.19;5134779;27;20047;-80
2022/03/05 07:02:38;;;;;;;17.57;8.00;;;;;;;-3.96;100.00;99430.19;5130917;27;20043;-80
2022/03/05 07:05:06;;;;;;;29.57;9.40;;;;;;;-3.74;100.00;99432.47;5132764;27;20050;-80
2022/03/05 07:07:32;;;;;;;34.27;12.13;;;;;;;-3.67;100.00;99430.34;5129871;27;20049;-80
2022/03/05 07:09:59;;;;;;;31.70;12.57;;;;;;;-3.64;100.00;99411.56;5139562;27;20099;-80
2022/03/05 07:12:27;;;;;;;23.73;10.63;;;;;;;-3.28;100.00;99438.72;5152488;27;20046;-80
2022/03/05 07:14:54;;;;;;;23.90;9.10;;;;;;;-3.07;100.00;99432.16;5132976;27;20047;-80
2022/03/05 07:17:20;;;;;;;22.27;8.83;;;;;;;-2.76;100.00;99419.63;5126072;27;20482;-80
2022/03/05 07:19:47;;;;;;;20.57;8.57;;;;;;;-2.44;99.87;99443.41;5131857;27;20509;-80
2022/03/05 07:22:13;;;;;;;18.00;8.57;;;;;;;-2.32;98.69;99431.13;5126981;27;20047;-79
2022/03/05 07:24:40;;;;;;;19.43;8.67;;;;;;;-2.38;98.84;99418.19;5128329;27;20479;-80
2022/03/05 07:27:08;;;;;;;24.10;9.93;;;;;;;-2.31;98.44;99401.72;5150526;27;20050;-80
2022/03/05 07:29:36;;;;;;;47.07;16.67;;;;;;;-2.13;97.81;99413.03;5138369;27;20047;-80
2022/03/05 07:32:07;;;;;;;22.73;9.67;;;;;;;-1.75;93.98;99418.66;5130883;27;20054;-80
2022/03/05 07:34:33;;;;;;;24.40;9.20;;;;;;;-1.62;94.24;99422.22;5134012;27;20714;-80
2022/03/05 07:37:00;;;;;;;20.50;8.60;;;;;;;-1.34;91.44;99434.59;5133093;27;20051;-80
2022/03/05 07:39:27;;;;;;;18.70;7.97;;;;;;;-1.22;89.84;99432.88;5131674;27;20047;-80
2022/03/05 07:41:54;;;;;;;20.17;8.77;;;;;;;-1.19;90.46;99410.47;5133402;27;20046;-80
2022/03/05 07:44:21;;;;;;;21.60;8.23;;;;;;;-1.01;88.49;99414.59;5132212;27;20121;-78
2022/03/05 07:46:52;;;;;;;28.07;9.27;;;;;;;-0.98;87.44;99408.16;5133638;27;20047;-81
2022/03/05 07:49:22;;;;;;;27.07;12.40;;;;;;;-0.83;87.56;99414.25;5138999;27;20413;-79
2022/03/05 07:51:48;;;;;;;22.58;8.73;;;;;;;-0.60;86.24;99420.69;5133967;27;20050;-76
2022/03/05 07:54:15;;;;;;;23.93;9.53;;;;;;;-0.50;86.03;99434.25;5132915;27;20061;-76
2022/03/05 07:56:42;;;;;;;20.87;9.23;;;;;;;-0.51;85.58;99405.81;5132701;27;20051;-76
2022/03/05 07:59:08;;;;;;;16.13;8.10;;;;;;;-0.26;84.65;99427.16;5115784;27;20055;-76
2022/03/05 08:01:35;;;;;;;18.40;9.37;;;;;;;-0.30;83.12;99404.31;5118584;27;20422;-76
2022/03/05 08:04:02;;;;;;;19.70;8.80;;;;;;;-0.11;82.19;99408.31;5126823;27;20058;-77
2022/03/05 08:06:29;;;;;;;23.03;10.23;;;;;;;0.11;81.35;99437.03;5132908;27;20043;-77
2022/03/05 11:32:55;;;;;;;8.30;4.50;;;;;;;4.44;44.20;99347.00;5069036;27;20424;-79
2022/03/05 11:35:28;;;;;;;9.02;4.32;;;;;;;4.61;45.36;99342.78;5068328;28;20052;-79
2022/03/05 11:37:54;;;;;;;8.45;4.35;;;;;;;4.87;44.05;99343.03;5071510;28;20468;-80
2022/03/05 11:40:37;;;;;;;6.65;3.97;;;;;;;4.88;41.86;99325.03;5065245;28;20041;-80
2022/03/05 11:43:28;;;;;;;8.18;4.40;;;;;;;4.97;42.26;99332.25;5065514;28;20048;-81
2022/03/05 11:45:59;;;;;;;5.57;3.35;;;;;;;5.02;42.20;99318.34;5052048;28;20540;-82
2022/03/05 11:48:32;;;;;;;8.95;3.75;;;;;;;5.25;41.90;99337.69;5067839;28;20045;-81
2022/03/05 11:51:01;;;;;;;6.25;3.60;;;;;;;5.16;40.70;99322.41;5068853;28;20072;-82
2022/03/05 11:53:29;;;;;;;7.43;4.00;;;;;;;5.09;39.87;99323.00;5066787;28;20088;-81
2022/03/05 11:55:56;;;;;;;6.78;3.95;;;;;;;5.28;40.53;99327.50;5067871;28;20059;-81
2022/03/05 11:58:31;;;;;;;8.48;4.05;;;;;;;5.29;41.71;99310.31;5065603;28;20053;-81
2022/03/05 12:00:58;;;;;;;6.40;3.90;;;;;;;5.34;41.68;99301.78;5065531;28;20052;-81
2022/03/05 12:03:43;;;;;;;7.90;4.00;;;;;;;5.31;38.92;99304.75;5067070;28;20466;-81
2022/03/05 12:06:13;;;;;;;8.18;3.85;;;;;;;5.42;39.81;99312.69;5075139;28;20048;-81
2022/03/05 12:08:57;;;;;;;5.60;3.30;;;;;;;5.49;38.29;99297.63;5087803;28;20048;-81
2022/03/05 12:11:24;;;;;;;7.50;4.30;;;;;;;5.57;39.22;99294.16;5068946;28;20055;-81
2022/03/05 12:13:57;;;;;;;7.25;4.15;;;;;;;5.52;37.66;99309.09;5066372;28;20052;-81
2022/03/05 12:16:26;;;;;;;8.50;4.30;;;;;;;5.63;39.20;99311.56;5063292;28;20040;-81
2022/03/05 12:18:56;;;;;;;7.18;4.18;;;;;;;5.82;39.83;99294.44;5066926;28;20131;-81
2022/03/05 12:21:27;;;;;;;6.65;3.40;;;;;;;5.76;38.60;99313.94;5067913;28;20053;-81
2022/03/05 12:24:02;;;;;;;7.70;4.63;;;;;;;5.60;39.37;99284.91;5066444;28;20078;-81
2022/03/05 12:26:39;;;;;;;8.63;4.43;;;;;;;5.77;38.82;99294.06;5066347;28;20458;-81
2022/03/05 12:29:07;;;;;;;9.35;4.57;;;;;;;5.60;39.47;99285.78;5063257;28;20060;-82
2022/03/05 12:31:34;;;;;;;27.17;13.15;;;;;;;5.92;38.66;99300.63;5067874;28;20049;-82
2022/03/05 12:34:02;;;;;;;13.20;5.72;;;;;;;6.02;38.72;99279.00;5063146;28;20505;-82
2022/03/05 12:36:28;;;;;;;6.43;4.28;;;;;;;6.32;38.97;99290.44;5060569;28;20053;-82
2022/03/05 12:39:01;;;;;;;7.57;4.13;;;;;;;6.41;38.22;99300.28;5066488;28;20060;-82
2022/03/05 12:41:28;;;;;;;7.03;4.00;;;;;;;6.14;38.54;99293.13;5066619;28;20055;-82
2022/03/05 12:43:56;;;;;;;7.68;4.15;;;;;;;6.31;38.36;99295.00;5054008;28;20500;-82
2022/03/05 12:46:23;;;;;;;10.10;4.90;;;;;;;6.25;38.22;99292.03;5051763;28;20102;-82
2022/03/05 12:48:50;;;;;;;6.47;4.38;;;;;;;6.14;38.09;99285.91;5058630;28;20506;-82
2022/03/05 12:51:21;;;;;;;9.13;4.80;;;;;;;6.39;38.30;99296.91;5072243;28;20048;-82
2022/03/05 12:53:58;;;;;;;8.23;4.95;;;;;;;6.29;39.32;99266.44;5051382;28;20045;-82
2022/03/05 12:56:25;;;;;;;8.90;5.03;;;;;;;6.41;38.13;99275.16;5053108;28;20479;-82
2022/03/05 12:58:55;;;;;;;9.57;4.70;;;;;;;6.44;39.40;99264.88;5052615;28;20053;-82
2022/03/05 13:01:22;;;;;;;11.23;4.65;;;;;;;6.61;39.56;99267.72;5053014;28;20045;-82
2022/03/05 13:03:49;;;;;;;11.18;4.78;;;;;;;6.32;39.90;99264.28;5054803;28;20057;-82
2022/03/05 13:06:19;;;;;;;9.88;5.25;;;;;;;6.54;39.56;99267.50;5052760;28;20056;-82
2022/03/05 13:08:45;;;;;;;9.60;5.45;;;;;;;6.62;38.33;99264.84;5044943;28;20146;-82
2022/03/05 13:11:14;;;;;;;5.75;3.97;;;;;;;6.60;38.97;99264.19;5052328;28;20460;-82
2022/03/05 13:13:42;;;;;;;9.40;5.40;;;;;;;6.77;38.68;99250.78;5051459;28;20053;-82
2022/03/05 13:16:11;;;;;;;13.98;5.95;;;;;;;6.83;40.04;99250.16;5052994;28;20063;-82
2022/03/05 13:18:39;;;;;;;10.60;5.20;;;;;;;7.11;41.11;99252.69;5053650;28;20063;-82
2022/03/05 13:21:08;;;;;;;11.68;5.85;;;;;;;7.28;38.80;99232.81;5053149;28;20133;-82
2022/03/05 13:23:38;;;;;;;10.35;5.60;;;;;;;7.28;38.36;99249.06;5050667;28;20045;-82
2022/03/05 13:26:06;;;;;;;9.32;5.38;;;;;;;7.32;39.47;99236.91;5051947;28;20171;-82
2022/03/05 13:28:33;;;;;;;11.32;6.00;;;;;;;7.36;38.30;99235.59;5052573;28;20060;-82
2022/03/05 13:31:01;;;;;;;8.68;5.05;;;;;;;7.28;40.24;99232.81;5051045;28;20090;-82
2022/03/05 13:33:37;;;;;;;13.30;5.70;;;;;;;7.22;37.37;99238.88;5052314;28;20131;-82
2022/03/05 13:36:15;;;;;;;8.73;5.10;;;;;;;7.01;36.60;99236.59;5052561;28;20056;-82
2022/03/05 13:38:45;;;;;;;8.60;4.75;;;;;;;7.11;37.73;99244.59;5050849;28;20547;-82
2022/03/05 13:41:13;;;;;;;7.60;4.68;;;;;;;7.11;37.40;99223.81;5032854;28;20049;-82
2022/03/05 13:43:40;;;;;;;10.48;5.00;;;;;;;6.70;36.02;99232.50;5031677;28;20045;-83
2022/03/05 13:46:09;;;;;;;7.75;4.95;;;;;;;6.87;37.83;99251.53;5034629;28;20115;-82
2022/03/05 13:48:46;;;;;;;9.38;5.03;;;;;;;6.76;36.18;99239.16;5056577;28;20083;-83
2022/03/05 13:51:14;;;;;;;8.55;4.22;;;;;;;6.79;36.53;99246.94;5032529;28;20135;-83
2022/03/05 13:53:47;;;;;;;9.65;5.13;;;;;;;6.89;37.95;99236.88;5030787;28;20057;-83
2022/03/05 13:56:15;;;;;;;7.57;4.60;;;;;;;6.79;36.39;99248.75;5033029;28;20128;-82
2022/03/05 13:58:43;;;;;;;8.35;4.53;;;;;;;6.62;36.12;99248.66;5033917;28;20057;-82
2022/03/05 14:01:28;;;;;;;10.73;4.40;;;;;;;6.56;35.99;99219.56;5040979;28;20056;-83
2022/03/05 14:04:13;;;;;;;8.07;4.32;;;;;;;6.79;35.77;99251.47;5046497;28;20052;-83
2022/03/05 14:06:57;;;;;;;7.35;4.47;;;;;;;6.76;35.66;99228.34;5051033;28;20514;-82
2022/03/05 14:09:30;;;;;;;6.13;3.45;;;;;;;6.82;36.68;99234.94;5051412;28;20478;-83
2022/03/05 14:12:11;;;;;;;6.53;4.43;;;;;;;6.75;35.31;99225.78;5051557;28;20048;-83
2022/03/05 14:14:46;;;;;;;7.07;3.90;;;;;;;6.62;35.00;99218.94;5050175;28;20055;-82
2022/03/05 14:17:24;;;;;;;7.25;4.28;;;;;;;6.70;34.67;99224.41;5050109;28;20047;-82
2022/03/05 14:20:02;;;;;;;7.57;4.78;;;;;;;6.82;35.28;99224.13;5046531;28;20063;-82
2022/03/05 14:22:35;;;;;;;8.35;4.70;;;;;;;6.89;35.72;99223.34;5061422;28;20462;-82
2022/03/05 14:25:03;;;;;;;8.60;4.63;;;;;;;6.84;37.00;99208.63;5050376;28;20075;-82
2022/03/05 14:27:30;;;;;;;7.90;4.50;;;;;;;6.84;35.62;99219.44;5051729;28;20052;-82
2022/03/05 14:29:57;;;;;;;8.00;4.47;;;;;;;6.82;36.83;99225.00;5051377;28;20684;-82
2022/03/05 14:32:24;;;;;;;8.05;4.28;;;;;;;6.69;35.71;99232.66;5050338;28;20048;-83
2022/03/05 14:34:50;;;;;;;10.25;5.05;;;;;;;6.83;36.69;99232.06;5050300;28;20056;-82
2022/03/05 14:37:17;;;;;;;6.80;3.97;;;;;;;6.94;35.56;99222.00;5054988;28;20059;-82
2022/03/05 14:39:44;;;;;;;8.38;4.60;;;;;;;7.23;35.36;99218.97;5055786;28;20638;-83
2022/03/05 14:42:12;;;;;;;8.82;4.43;;;;;;;7.15;35.34;99218.91;5052134;28;20052;-82
2022/03/05 14:44:38;;;;;;;7.13;4.30;;;;;;;7.02;36.96;99217.50;5053410;28;20049;-82
2022/03/05 14:47:05;;;;;;;8.98;4.45;;;;;;;6.95;35.96;99224.53;5053882;28;20049;-83
2022/03/05 14:49:32;;;;;;;8.07;3.88;;;;;;;6.74;36.95;99219.53;5052220;28;20136;-82
2022/03/05 14:51:59;;;;;;;10.18;5.25;;;;;;;6.60;35.79;99209.31;5051746;28;20048;-82
2022/03/05 14:54:25;;;;;;;8.60;4.50;;;;;;;6.76;36.96;99227.47;5049884;28;20059;-83